Startpagina
METAR-TAF:

METAR-TAF

Vliegvelden :

Baker Municipal Airport

Baker, Montana, Verenigde Staten

breedte: 46-20-52N, lengte: 104-15-27W, hoogte: 905 m

Actueel weer

Dit bericht is 35 minuten geleden gemaakt, om 16:51 UTC
Wind 19 kt uit het noordnoordwesten met uitschieters tot 28 kt
Temperatuur 12°C
Vochtigheid 40%
Druk 1020 hPa
Zicht: 16.1 km
Onbewolkt

METAR: KBHK 181651Z AUTO 34019G28KT 10SM CLR 12/M01 A3012 RMK AO2 PK WND 33029/1600 SLP206 T01221011

Tijdstip: 11:26 (17:26 UTC)


TAF: ontbreekt

Waarnemingen en weersverwachtingen van meer dan 4000 vliegvelden (METAR en TAF).

De beschikbare stations zijn de gele en rode punten op de kaart.

Ga met uw muis naar het station om de naam te zien.

Klik dan om waarnemingen en weersverwachtingen te zien.

kaart wijzigen: klik op de groene knoppen met een zwart kruis om in te zoomen, op de groene knop met een streepje om uit te zoomen of op de groene pijlen voor aangrenzende kaarten.


METAR-TAF: